Napakiak, Alaska
Current Conditions -  °F | °C
As of 11:56 AM on Thursday 23 Oct 2014 (Local Time) from PANA Reporting Station
Light Snow Light Snow  
Wind Chill: 17°   Ceiling: 2100
Heat Index: 27°   Visibility: 3mi
Dew Point: 26°   Wind: 12mph
Humidity: 96%   Direction: 170°S
Pressure: 29.9"   Gusts: NA
Location:  60.7°N, 161.95°W
Report Text: PANA 231956Z AUTO 17010KT 3SM -SN BR OVC021 M03/M03 A2990 RMK AO2 SLP125 P0001 T10281033 FZRANO
Loading
Personal Weather Stations






























Interactive Weather Map
Tropical Storm Tracking
New forecast layout! Learn more

10-Day Weather Forecast

Advertisements
Track Severe Weather on mobile